sensor_id;sensor_type;location;lat;lon;timestamp;P1;durP1;ratioP1;P2;durP2;ratioP2
76477;SDS011;65309;49.790;18.972;2023-05-19T00:00:37;11.65;;;7.35;;
76477;SDS011;65309;49.790;18.972;2023-05-19T00:05:52;4.30;;;3.05;;
76477;SDS011;65309;49.790;18.972;2023-05-19T00:10:56;8.15;;;5.70;;
76477;SDS011;65309;49.790;18.972;2023-05-19T00:15:59;6.80;;;4.18;;
76477;SDS011;65309;49.790;18.972;2023-05-19T00:21:01;6.10;;;3.63;;
76477;SDS011;65309;49.790;18.972;2023-05-19T00:26:05;8.77;;;5.28;;
76477;SDS011;65309;49.790;18.972;2023-05-19T00:36:09;13.57;;;8.18;;
76477;SDS011;65309;49.790;18.972;2023-05-19T00:41:12;12.38;;;7.97;;
76477;SDS011;65309;49.790;18.972;2023-05-19T00:51:16;10.95;;;7.38;;
76477;SDS011;65309;49.790;18.972;2023-05-19T00:56:20;8.63;;;6.55;;
76477;SDS011;65309;49.790;18.972;2023-05-19T01:01:23;9.82;;;6.68;;
76477;SDS011;65309;49.790;18.972;2023-05-19T01:06:27;10.80;;;6.03;;
76477;SDS011;65309;49.790;18.972;2023-05-19T01:11:31;9.05;;;6.05;;
76477;SDS011;65309;49.790;18.972;2023-05-19T01:21:52;4.65;;;3.13;;
76477;SDS011;65309;49.790;18.972;2023-05-19T01:27:28;7.70;;;5.10;;
76477;SDS011;65309;49.790;18.972;2023-05-19T01:32:44;10.25;;;6.22;;
76477;SDS011;65309;49.790;18.972;2023-05-19T01:37:49;10.30;;;6.80;;
76477;SDS011;65309;49.790;18.972;2023-05-19T01:42:53;11.10;;;7.68;;
76477;SDS011;65309;49.790;18.972;2023-05-19T01:48:00;7.47;;;5.05;;
76477;SDS011;65309;49.790;18.972;2023-05-19T01:53:04;5.57;;;4.32;;
76477;SDS011;65309;49.790;18.972;2023-05-19T01:58:08;6.05;;;3.70;;
76477;SDS011;65309;49.790;18.972;2023-05-19T02:08:26;5.38;;;2.38;;
76477;SDS011;65309;49.790;18.972;2023-05-19T02:13:36;4.05;;;2.38;;
76477;SDS011;65309;49.790;18.972;2023-05-19T02:18:41;4.25;;;2.67;;
76477;SDS011;65309;49.790;18.972;2023-05-19T02:23:49;4.82;;;3.60;;
76477;SDS011;65309;49.790;18.972;2023-05-19T02:28:51;7.95;;;5.88;;
76477;SDS011;65309;49.790;18.972;2023-05-19T02:33:54;9.27;;;6.07;;
76477;SDS011;65309;49.790;18.972;2023-05-19T02:43:58;16.73;;;9.40;;
76477;SDS011;65309;49.790;18.972;2023-05-19T02:49:02;12.10;;;7.80;;
76477;SDS011;65309;49.790;18.972;2023-05-19T02:59:06;7.30;;;5.05;;
76477;SDS011;65309;49.790;18.972;2023-05-19T03:04:09;5.70;;;2.90;;
76477;SDS011;65309;49.790;18.972;2023-05-19T03:09:11;6.10;;;3.78;;
76477;SDS011;65309;49.790;18.972;2023-05-19T03:14:14;3.22;;;2.25;;
76477;SDS011;65309;49.790;18.972;2023-05-19T03:19:17;4.43;;;3.15;;
76477;SDS011;65309;49.790;18.972;2023-05-19T03:24:19;6.18;;;2.88;;
76477;SDS011;65309;49.790;18.972;2023-05-19T03:29:21;2.90;;;1.67;;
76477;SDS011;65309;49.790;18.972;2023-05-19T03:34:25;3.75;;;2.47;;
76477;SDS011;65309;49.790;18.972;2023-05-19T03:39:27;3.65;;;2.42;;
76477;SDS011;65309;49.790;18.972;2023-05-19T03:44:29;4.60;;;3.05;;
76477;SDS011;65309;49.790;18.972;2023-05-19T03:49:32;2.60;;;2.20;;
76477;SDS011;65309;49.790;18.972;2023-05-19T03:59:36;2.25;;;1.58;;
76477;SDS011;65309;49.790;18.972;2023-05-19T04:04:40;4.38;;;3.13;;
76477;SDS011;65309;49.790;18.972;2023-05-19T04:09:42;5.05;;;2.70;;
76477;SDS011;65309;49.790;18.972;2023-05-19T04:14:45;6.93;;;3.35;;
76477;SDS011;65309;49.790;18.972;2023-05-19T04:19:49;3.42;;;2.50;;
76477;SDS011;65309;49.790;18.972;2023-05-19T04:24:51;4.20;;;2.47;;
76477;SDS011;65309;49.790;18.972;2023-05-19T04:29:53;4.82;;;2.53;;
76477;SDS011;65309;49.790;18.972;2023-05-19T04:34:58;3.90;;;2.70;;
76477;SDS011;65309;49.790;18.972;2023-05-19T04:40:01;4.35;;;2.70;;
76477;SDS011;65309;49.790;18.972;2023-05-19T04:45:03;6.13;;;3.45;;
76477;SDS011;65309;49.790;18.972;2023-05-19T04:50:08;4.85;;;2.72;;
76477;SDS011;65309;49.790;18.972;2023-05-19T04:55:11;4.80;;;3.00;;
76477;SDS011;65309;49.790;18.972;2023-05-19T05:00:14;3.08;;;2.22;;
76477;SDS011;65309;49.790;18.972;2023-05-19T05:05:18;4.78;;;2.90;;
76477;SDS011;65309;49.790;18.972;2023-05-19T05:10:20;4.05;;;2.72;;
76477;SDS011;65309;49.790;18.972;2023-05-19T05:15:22;3.45;;;2.25;;
76477;SDS011;65309;49.790;18.972;2023-05-19T05:20:27;2.95;;;1.90;;
76477;SDS011;65309;49.790;18.972;2023-05-19T05:25:29;4.25;;;2.40;;
76477;SDS011;65309;49.790;18.972;2023-05-19T05:35:36;2.92;;;1.92;;
76477;SDS011;65309;49.790;18.972;2023-05-19T05:40:38;3.03;;;2.40;;
76477;SDS011;65309;49.790;18.972;2023-05-19T05:45:40;2.75;;;2.00;;
76477;SDS011;65309;49.790;18.972;2023-05-19T05:50:44;6.03;;;3.38;;
76477;SDS011;65309;49.790;18.972;2023-05-19T05:55:47;4.85;;;3.08;;
76477;SDS011;65309;49.790;18.972;2023-05-19T06:00:50;3.53;;;2.50;;
76477;SDS011;65309;49.790;18.972;2023-05-19T06:05:55;4.65;;;3.20;;
76477;SDS011;65309;49.790;18.972;2023-05-19T06:10:57;4.13;;;2.70;;
76477;SDS011;65309;49.790;18.972;2023-05-19T06:15:59;3.63;;;2.70;;
76477;SDS011;65309;49.790;18.972;2023-05-19T06:21:04;6.50;;;2.55;;
76477;SDS011;65309;49.790;18.972;2023-05-19T06:26:06;4.03;;;2.75;;
76477;SDS011;65309;49.790;18.972;2023-05-19T06:31:08;4.60;;;2.72;;
76477;SDS011;65309;49.790;18.972;2023-05-19T06:36:12;3.55;;;2.80;;
76477;SDS011;65309;49.790;18.972;2023-05-19T06:41:14;4.40;;;3.08;;
76477;SDS011;65309;49.790;18.972;2023-05-19T06:46:16;3.05;;;2.35;;
76477;SDS011;65309;49.790;18.972;2023-05-19T06:51:20;6.38;;;3.20;;
76477;SDS011;65309;49.790;18.972;2023-05-19T06:56:23;4.22;;;2.70;;
76477;SDS011;65309;49.790;18.972;2023-05-19T07:01:25;3.15;;;2.67;;
76477;SDS011;65309;49.790;18.972;2023-05-19T07:06:29;4.72;;;3.42;;
76477;SDS011;65309;49.790;18.972;2023-05-19T07:11:31;6.40;;;3.33;;
76477;SDS011;65309;49.790;18.972;2023-05-19T07:16:34;3.88;;;2.80;;
76477;SDS011;65309;49.790;18.972;2023-05-19T07:21:37;6.70;;;2.50;;
76477;SDS011;65309;49.790;18.972;2023-05-19T07:26:39;3.40;;;2.50;;
76477;SDS011;65309;49.790;18.972;2023-05-19T07:31:41;3.72;;;3.13;;
76477;SDS011;65309;49.790;18.972;2023-05-19T07:36:45;3.38;;;2.42;;
76477;SDS011;65309;49.790;18.972;2023-05-19T07:41:47;3.90;;;2.63;;
76477;SDS011;65309;49.790;18.972;2023-05-19T07:46:53;3.40;;;2.20;;
76477;SDS011;65309;49.790;18.972;2023-05-19T07:51:56;2.83;;;2.10;;
76477;SDS011;65309;49.790;18.972;2023-05-19T07:56:58;3.75;;;2.58;;
76477;SDS011;65309;49.790;18.972;2023-05-19T08:02:00;3.17;;;2.45;;
76477;SDS011;65309;49.790;18.972;2023-05-19T08:07:04;4.38;;;2.60;;
76477;SDS011;65309;49.790;18.972;2023-05-19T08:12:06;3.97;;;2.70;;
76477;SDS011;65309;49.790;18.972;2023-05-19T08:17:08;4.10;;;3.10;;
76477;SDS011;65309;49.790;18.972;2023-05-19T08:22:11;3.08;;;2.67;;
76477;SDS011;65309;49.790;18.972;2023-05-19T08:27:13;4.07;;;2.55;;
76477;SDS011;65309;49.790;18.972;2023-05-19T08:32:16;5.50;;;3.35;;
76477;SDS011;65309;49.790;18.972;2023-05-19T08:37:20;3.60;;;2.60;;
76477;SDS011;65309;49.790;18.972;2023-05-19T08:42:22;3.45;;;2.42;;
76477;SDS011;65309;49.790;18.972;2023-05-19T08:47:24;4.32;;;2.70;;
76477;SDS011;65309;49.790;18.972;2023-05-19T08:52:30;4.15;;;3.30;;
76477;SDS011;65309;49.790;18.972;2023-05-19T08:57:36;4.75;;;2.92;;
76477;SDS011;65309;49.790;18.972;2023-05-19T09:02:39;3.58;;;2.50;;
76477;SDS011;65309;49.790;18.972;2023-05-19T09:08:03;2.33;;;1.75;;
76477;SDS011;65309;49.790;18.972;2023-05-19T09:13:05;2.72;;;2.33;;
76477;SDS011;65309;49.790;18.972;2023-05-19T09:18:08;4.80;;;2.80;;
76477;SDS011;65309;49.790;18.972;2023-05-19T09:23:13;4.35;;;2.75;;
76477;SDS011;65309;49.790;18.972;2023-05-19T09:28:23;4.50;;;3.25;;
76477;SDS011;65309;49.790;18.972;2023-05-19T09:33:27;3.38;;;3.08;;
76477;SDS011;65309;49.790;18.972;2023-05-19T09:38:33;2.65;;;2.30;;
76477;SDS011;65309;49.790;18.972;2023-05-19T09:43:35;3.55;;;2.35;;
76477;SDS011;65309;49.790;18.972;2023-05-19T09:48:37;5.78;;;3.90;;
76477;SDS011;65309;49.790;18.972;2023-05-19T09:53:41;5.25;;;4.03;;
76477;SDS011;65309;49.790;18.972;2023-05-19T09:58:48;4.40;;;3.83;;
76477;SDS011;65309;49.790;18.972;2023-05-19T10:03:51;8.30;;;4.28;;
76477;SDS011;65309;49.790;18.972;2023-05-19T10:08:55;5.82;;;4.20;;
76477;SDS011;65309;49.790;18.972;2023-05-19T10:13:59;6.45;;;4.97;;
76477;SDS011;65309;49.790;18.972;2023-05-19T10:19:01;4.43;;;2.78;;
76477;SDS011;65309;49.790;18.972;2023-05-19T10:24:06;7.15;;;5.60;;
76477;SDS011;65309;49.790;18.972;2023-05-19T10:29:08;5.05;;;3.33;;
76477;SDS011;65309;49.790;18.972;2023-05-19T10:34:18;4.78;;;3.78;;
76477;SDS011;65309;49.790;18.972;2023-05-19T10:39:36;5.22;;;4.10;;
76477;SDS011;65309;49.790;18.972;2023-05-19T10:44:45;6.68;;;4.28;;
76477;SDS011;65309;49.790;18.972;2023-05-19T10:49:56;6.50;;;4.63;;
76477;SDS011;65309;49.790;18.972;2023-05-19T10:55:02;5.45;;;4.18;;
76477;SDS011;65309;49.790;18.972;2023-05-19T11:00:25;7.65;;;4.40;;
76477;SDS011;65309;49.790;18.972;2023-05-19T11:05:28;6.32;;;5.32;;
76477;SDS011;65309;49.790;18.972;2023-05-19T11:15:34;6.70;;;4.40;;
76477;SDS011;65309;49.790;18.972;2023-05-19T11:20:37;7.72;;;5.40;;
76477;SDS011;65309;49.790;18.972;2023-05-19T11:30:47;6.32;;;4.57;;
76477;SDS011;65309;49.790;18.972;2023-05-19T11:35:54;7.10;;;4.47;;
76477;SDS011;65309;49.790;18.972;2023-05-19T11:41:01;7.43;;;5.03;;
76477;SDS011;65309;49.790;18.972;2023-05-19T11:46:04;5.97;;;4.82;;
76477;SDS011;65309;49.790;18.972;2023-05-19T11:51:06;6.45;;;4.20;;
76477;SDS011;65309;49.790;18.972;2023-05-19T11:56:10;6.82;;;5.80;;
76477;SDS011;65309;49.790;18.972;2023-05-19T12:01:12;7.93;;;5.38;;
76477;SDS011;65309;49.790;18.972;2023-05-19T12:06:14;5.90;;;3.90;;
76477;SDS011;65309;49.790;18.972;2023-05-19T12:11:19;9.02;;;5.30;;
76477;SDS011;65309;49.790;18.972;2023-05-19T12:16:21;6.57;;;4.50;;
76477;SDS011;65309;49.790;18.972;2023-05-19T12:21:24;3.10;;;2.20;;
76477;SDS011;65309;49.790;18.972;2023-05-19T12:26:36;6.25;;;4.43;;
76477;SDS011;65309;49.790;18.972;2023-05-19T12:31:38;6.90;;;5.25;;
76477;SDS011;65309;49.790;18.972;2023-05-19T12:36:40;7.65;;;5.97;;
76477;SDS011;65309;49.790;18.972;2023-05-19T12:41:44;7.75;;;5.22;;
76477;SDS011;65309;49.790;18.972;2023-05-19T12:46:50;6.05;;;4.70;;
76477;SDS011;65309;49.790;18.972;2023-05-19T12:51:52;7.15;;;5.55;;
76477;SDS011;65309;49.790;18.972;2023-05-19T12:56:57;6.57;;;4.40;;
76477;SDS011;65309;49.790;18.972;2023-05-19T13:02:00;7.20;;;5.15;;
76477;SDS011;65309;49.790;18.972;2023-05-19T13:07:03;8.15;;;4.97;;
76477;SDS011;65309;49.790;18.972;2023-05-19T13:12:07;7.53;;;5.43;;
76477;SDS011;65309;49.790;18.972;2023-05-19T13:17:09;7.72;;;4.95;;
76477;SDS011;65309;49.790;18.972;2023-05-19T13:22:11;7.40;;;5.43;;
76477;SDS011;65309;49.790;18.972;2023-05-19T13:27:14;6.50;;;4.72;;
76477;SDS011;65309;49.790;18.972;2023-05-19T13:32:16;5.55;;;4.32;;
76477;SDS011;65309;49.790;18.972;2023-05-19T13:37:18;9.02;;;5.55;;
76477;SDS011;65309;49.790;18.972;2023-05-19T13:42:22;7.25;;;5.28;;
76477;SDS011;65309;49.790;18.972;2023-05-19T13:47:24;8.90;;;5.18;;
76477;SDS011;65309;49.790;18.972;2023-05-19T13:52:26;9.02;;;5.97;;
76477;SDS011;65309;49.790;18.972;2023-05-19T13:57:32;6.70;;;5.97;;
76477;SDS011;65309;49.790;18.972;2023-05-19T14:02:34;9.55;;;6.07;;
76477;SDS011;65309;49.790;18.972;2023-05-19T14:07:38;9.77;;;6.57;;
76477;SDS011;65309;49.790;18.972;2023-05-19T14:12:42;12.38;;;7.85;;
76477;SDS011;65309;49.790;18.972;2023-05-19T14:18:04;5.80;;;4.53;;
76477;SDS011;65309;49.790;18.972;2023-05-19T14:23:08;9.23;;;5.72;;
76477;SDS011;65309;49.790;18.972;2023-05-19T14:28:11;11.35;;;6.82;;
76477;SDS011;65309;49.790;18.972;2023-05-19T14:33:13;10.70;;;6.63;;
76477;SDS011;65309;49.790;18.972;2023-05-19T14:38:15;10.35;;;7.60;;
76477;SDS011;65309;49.790;18.972;2023-05-19T14:43:19;11.82;;;6.22;;
76477;SDS011;65309;49.790;18.972;2023-05-19T14:48:21;8.98;;;6.15;;
76477;SDS011;65309;49.790;18.972;2023-05-19T14:53:23;13.13;;;6.50;;
76477;SDS011;65309;49.790;18.972;2023-05-19T14:58:27;12.20;;;6.95;;
76477;SDS011;65309;49.790;18.972;2023-05-19T15:03:30;12.93;;;7.32;;
76477;SDS011;65309;49.790;18.972;2023-05-19T15:08:32;8.27;;;6.10;;
76477;SDS011;65309;49.790;18.972;2023-05-19T15:13:35;10.77;;;7.20;;
76477;SDS011;65309;49.790;18.972;2023-05-19T15:18:38;15.52;;;7.22;;
76477;SDS011;65309;49.790;18.972;2023-05-19T15:23:40;8.45;;;5.47;;
76477;SDS011;65309;49.790;18.972;2023-05-19T15:28:43;7.55;;;5.10;;
76477;SDS011;65309;49.790;18.972;2023-05-19T15:33:45;11.45;;;8.45;;
76477;SDS011;65309;49.790;18.972;2023-05-19T15:38:47;8.00;;;5.68;;
76477;SDS011;65309;49.790;18.972;2023-05-19T15:43:50;14.60;;;6.82;;
76477;SDS011;65309;49.790;18.972;2023-05-19T15:48:54;8.30;;;6.63;;
76477;SDS011;65309;49.790;18.972;2023-05-19T15:53:56;14.55;;;9.48;;
76477;SDS011;65309;49.790;18.972;2023-05-19T15:58:59;10.95;;;7.38;;
76477;SDS011;65309;49.790;18.972;2023-05-19T16:04:02;9.80;;;6.95;;
76477;SDS011;65309;49.790;18.972;2023-05-19T16:14:08;16.45;;;8.65;;
76477;SDS011;65309;49.790;18.972;2023-05-19T16:19:10;7.38;;;5.20;;
76477;SDS011;65309;49.790;18.972;2023-05-19T16:24:13;15.13;;;8.50;;
76477;SDS011;65309;49.790;18.972;2023-05-19T16:29:16;12.23;;;7.10;;
76477;SDS011;65309;49.790;18.972;2023-05-19T16:34:18;18.83;;;10.75;;
76477;SDS011;65309;49.790;18.972;2023-05-19T16:39:20;17.63;;;9.65;;
76477;SDS011;65309;49.790;18.972;2023-05-19T16:44:24;14.30;;;9.18;;
76477;SDS011;65309;49.790;18.972;2023-05-19T16:49:26;11.55;;;8.73;;
76477;SDS011;65309;49.790;18.972;2023-05-19T16:54:28;20.80;;;9.77;;
76477;SDS011;65309;49.790;18.972;2023-05-19T16:59:32;14.10;;;9.13;;
76477;SDS011;65309;49.790;18.972;2023-05-19T17:04:34;14.25;;;9.15;;
76477;SDS011;65309;49.790;18.972;2023-05-19T17:09:36;20.33;;;12.35;;
76477;SDS011;65309;49.790;18.972;2023-05-19T17:14:40;14.85;;;9.70;;
76477;SDS011;65309;49.790;18.972;2023-05-19T17:19:44;13.60;;;8.80;;
76477;SDS011;65309;49.790;18.972;2023-05-19T17:24:46;16.95;;;10.32;;
76477;SDS011;65309;49.790;18.972;2023-05-19T17:29:50;14.55;;;7.93;;
76477;SDS011;65309;49.790;18.972;2023-05-19T17:34:52;24.65;;;13.85;;
76477;SDS011;65309;49.790;18.972;2023-05-19T17:39:54;20.90;;;13.00;;
76477;SDS011;65309;49.790;18.972;2023-05-19T17:44:58;14.65;;;10.13;;
76477;SDS011;65309;49.790;18.972;2023-05-19T17:50:00;15.48;;;9.13;;
76477;SDS011;65309;49.790;18.972;2023-05-19T17:55:02;17.17;;;10.82;;
76477;SDS011;65309;49.790;18.972;2023-05-19T18:05:10;26.35;;;14.18;;
76477;SDS011;65309;49.790;18.972;2023-05-19T18:10:13;19.00;;;10.57;;
76477;SDS011;65309;49.790;18.972;2023-05-19T18:15:17;19.27;;;12.52;;
76477;SDS011;65309;49.790;18.972;2023-05-19T18:20:19;25.80;;;15.98;;
76477;SDS011;65309;49.790;18.972;2023-05-19T18:25:21;18.83;;;12.45;;
76477;SDS011;65309;49.790;18.972;2023-05-19T18:30:25;26.25;;;13.52;;
76477;SDS011;65309;49.790;18.972;2023-05-19T18:35:27;27.50;;;15.60;;
76477;SDS011;65309;49.790;18.972;2023-05-19T18:40:29;22.27;;;14.82;;
76477;SDS011;65309;49.790;18.972;2023-05-19T18:45:33;25.67;;;14.88;;
76477;SDS011;65309;49.790;18.972;2023-05-19T18:50:37;14.73;;;9.30;;
76477;SDS011;65309;49.790;18.972;2023-05-19T18:55:39;36.42;;;21.70;;
76477;SDS011;65309;49.790;18.972;2023-05-19T19:00:42;42.00;;;21.15;;
76477;SDS011;65309;49.790;18.972;2023-05-19T19:05:45;31.08;;;15.45;;
76477;SDS011;65309;49.790;18.972;2023-05-19T19:10:53;29.17;;;17.33;;
76477;SDS011;65309;49.790;18.972;2023-05-19T19:16:02;40.17;;;21.70;;
76477;SDS011;65309;49.790;18.972;2023-05-19T19:21:04;27.20;;;17.85;;
76477;SDS011;65309;49.790;18.972;2023-05-19T19:26:07;24.50;;;14.40;;
76477;SDS011;65309;49.790;18.972;2023-05-19T19:36:13;23.55;;;14.48;;
76477;SDS011;65309;49.790;18.972;2023-05-19T19:41:15;15.27;;;9.57;;
76477;SDS011;65309;49.790;18.972;2023-05-19T19:46:18;33.42;;;17.58;;
76477;SDS011;65309;49.790;18.972;2023-05-19T19:51:21;23.23;;;14.05;;
76477;SDS011;65309;49.790;18.972;2023-05-19T19:56:23;32.58;;;19.48;;
76477;SDS011;65309;49.790;18.972;2023-05-19T20:01:29;19.42;;;11.95;;
76477;SDS011;65309;49.790;18.972;2023-05-19T20:06:31;32.90;;;17.67;;
76477;SDS011;65309;49.790;18.972;2023-05-19T20:11:33;32.50;;;16.45;;
76477;SDS011;65309;49.790;18.972;2023-05-19T20:16:37;37.28;;;18.40;;
76477;SDS011;65309;49.790;18.972;2023-05-19T20:21:41;24.10;;;14.05;;
76477;SDS011;65309;49.790;18.972;2023-05-19T20:26:43;20.05;;;12.18;;
76477;SDS011;65309;49.790;18.972;2023-05-19T20:31:46;19.05;;;10.00;;
76477;SDS011;65309;49.790;18.972;2023-05-19T20:36:48;18.77;;;11.05;;
76477;SDS011;65309;49.790;18.972;2023-05-19T20:41:50;19.83;;;11.50;;
76477;SDS011;65309;49.790;18.972;2023-05-19T20:46:54;29.42;;;16.80;;
76477;SDS011;65309;49.790;18.972;2023-05-19T20:51:56;24.60;;;11.60;;
76477;SDS011;65309;49.790;18.972;2023-05-19T20:56:58;21.40;;;11.82;;
76477;SDS011;65309;49.790;18.972;2023-05-19T21:02:01;23.80;;;12.57;;
76477;SDS011;65309;49.790;18.972;2023-05-19T21:07:03;21.35;;;13.32;;
76477;SDS011;65309;49.790;18.972;2023-05-19T21:12:06;26.75;;;15.25;;
76477;SDS011;65309;49.790;18.972;2023-05-19T21:17:09;22.40;;;12.27;;
76477;SDS011;65309;49.790;18.972;2023-05-19T21:22:12;18.88;;;13.15;;
76477;SDS011;65309;49.790;18.972;2023-05-19T21:27:14;29.38;;;13.73;;
76477;SDS011;65309;49.790;18.972;2023-05-19T21:32:17;20.48;;;12.88;;
76477;SDS011;65309;49.790;18.972;2023-05-19T21:37:19;22.55;;;14.75;;
76477;SDS011;65309;49.790;18.972;2023-05-19T21:42:22;29.15;;;15.73;;
76477;SDS011;65309;49.790;18.972;2023-05-19T21:47:25;26.63;;;14.70;;
76477;SDS011;65309;49.790;18.972;2023-05-19T21:52:27;28.27;;;15.18;;
76477;SDS011;65309;49.790;18.972;2023-05-19T21:57:30;19.70;;;12.68;;
76477;SDS011;65309;49.790;18.972;2023-05-19T22:02:33;19.52;;;10.98;;
76477;SDS011;65309;49.790;18.972;2023-05-19T22:07:35;28.75;;;12.73;;
76477;SDS011;65309;49.790;18.972;2023-05-19T22:12:38;17.27;;;11.70;;
76477;SDS011;65309;49.790;18.972;2023-05-19T22:17:41;19.45;;;13.00;;
76477;SDS011;65309;49.790;18.972;2023-05-19T22:22:43;24.95;;;14.02;;
76477;SDS011;65309;49.790;18.972;2023-05-19T22:27:45;33.20;;;15.55;;
76477;SDS011;65309;49.790;18.972;2023-05-19T22:32:49;24.10;;;14.23;;
76477;SDS011;65309;49.790;18.972;2023-05-19T22:37:51;20.80;;;12.20;;
76477;SDS011;65309;49.790;18.972;2023-05-19T22:42:53;28.58;;;13.07;;
76477;SDS011;65309;49.790;18.972;2023-05-19T22:47:56;20.63;;;13.82;;
76477;SDS011;65309;49.790;18.972;2023-05-19T22:52:58;22.98;;;12.93;;
76477;SDS011;65309;49.790;18.972;2023-05-19T22:58:00;15.85;;;10.27;;
76477;SDS011;65309;49.790;18.972;2023-05-19T23:03:04;18.17;;;10.68;;
76477;SDS011;65309;49.790;18.972;2023-05-19T23:08:06;19.23;;;11.23;;
76477;SDS011;65309;49.790;18.972;2023-05-19T23:13:08;14.95;;;8.82;;
76477;SDS011;65309;49.790;18.972;2023-05-19T23:18:13;14.77;;;8.38;;
76477;SDS011;65309;49.790;18.972;2023-05-19T23:23:16;21.45;;;11.60;;
76477;SDS011;65309;49.790;18.972;2023-05-19T23:28:18;14.45;;;9.43;;
76477;SDS011;65309;49.790;18.972;2023-05-19T23:33:21;15.45;;;9.55;;
76477;SDS011;65309;49.790;18.972;2023-05-19T23:38:23;19.65;;;9.30;;
76477;SDS011;65309;49.790;18.972;2023-05-19T23:43:26;18.98;;;9.13;;
76477;SDS011;65309;49.790;18.972;2023-05-19T23:48:29;14.65;;;9.15;;
76477;SDS011;65309;49.790;18.972;2023-05-19T23:53:32;15.35;;;9.43;;
76477;SDS011;65309;49.790;18.972;2023-05-19T23:58:34;16.40;;;8.80;;
